• Join FlightAware (Why Join?)
  • Login
  • US Flag 
06:50AM EDT


 

Airport Tracker/Info


-or-


 

Live Flight TrackerFlight Track Log ✈ N6658K ✈ 25-Jul-2013 ✈ D52 - K16

Flight Track Log - Related Links

Times and Time Zones

All times are in EDT time to prevent confusion due to time zone crossing. See the N6658K flight status page for this flight to view local times or setup timezone preferences in your user account.

Time Position Orientation Groundspeed Altitude Reporting Facility
EDT Latitude Longitude Course Direction KTS MPH feet Rate Location/Type
07:16PM 43.0372 -78.0608 73° East 93 107 3,900  Level Cleveland Center
07:17PM 43.0447 -78.0264 73° East 92 106 4,900 780 Climbing Cleveland Center
07:18PM 43.0481 -77.9894 83° East 95 109 5,600 360 Climbing Cleveland Center
07:19PM 43.0553 -77.9436 78° East 136 157 5,700  Climbing Cleveland Center
07:20PM 43.0581 -77.8839 86° East 153 176 5,700 -60 Level Cleveland Center
07:21PM 43.0589 -77.8242 89° East 158 182 5,600 -60 Descending Cleveland Center
07:22PM 43.0658 -77.7669 81° East 150 173 5,600  Level Cleveland Center
07:23PM 43.0750 -77.7125 77° East 154 177 5,600  Level Cleveland Center
07:24PM 43.0817 -77.6525 81° East 155 178 5,700  Climbing Cleveland Center
07:25PM 43.0844 -77.5928 86° East 158 182 5,600 -60 Descending Cleveland Center
07:26PM 43.0892 -77.5328 84° East 156 180 5,600  Level Cleveland Center
07:27PM 43.0958 -77.4728 81° East 158 182 5,600  Level Cleveland Center
07:28PM 43.1025 -77.4125 81° East 155 178 5,600  Level Cleveland Center
07:29PM 43.1050 -77.3528 87° East 155 178 5,600  Level Cleveland Center
07:30PM 43.1139 -77.2983 77° East 154 177 5,600  Level Cleveland Center
07:31PM 43.1183 -77.2383 84° East 154 177 5,600 -60 Level Cleveland Center
07:33PM 43.1306 -77.1467 80° East 152 175 5,500 -60 Descending Boston Center
07:34PM 43.1289 -77.0894 92° East 152 175 5,500  Level Boston Center
07:35PM 43.1333 -77.0300 84° East 154 177 5,500  Level Boston Center
07:36PM 43.1439 -76.9739 76° East 156 180 5,500  Level Boston Center
07:37PM 43.1464 -76.9144 87° East 157 181 5,500  Level Boston Center
07:38PM 43.1486 -76.8547 87° East 157 181 5,500  Level Boston Center
07:39PM 43.1572 -76.7956 79° East 156 180 5,500  Level Boston Center
07:40PM 43.1592 -76.7386 87° East 155 178 5,500  Level Boston Center
07:41PM 43.1661 -76.6681 82° East 154 177 5,500  Level Boston Center
07:42PM 43.1681 -76.6139 87° East 153 176 5,600  Climbing Boston Center
07:43PM 43.1722 -76.5603 84° East 151 174 5,500 -60 Descending Boston Center
07:44PM 43.1783 -76.5064 81° East 151 174 5,500  Level Boston Center
07:45PM 43.1819 -76.4611 84° East 148 170 5,500  Level Boston Center
07:46PM 43.1864 -76.3903 85° East 148 170 5,500  Level Boston Center
07:47PM 43.1906 -76.3364 84° East 148 170 5,500  Level Boston Center
07:48PM 43.2011 -76.2714 77° East 148 170 5,500  Level Boston Center
07:49PM 43.2047 -76.2206 84° East 148 170 5,500  Level Boston Center
07:50PM 43.2108 -76.1639 82° East 147 169 5,500  Level Boston Center
07:51PM 43.2083 -76.1067 93° East 149 171 5,500 -180 Level Boston Center
07:52PM 43.2081 -76.0581 90° East 150 173 5,200 -660 Descending Boston Center
07:53PM 43.2183 -75.9961 77° East 155 178 4,300 -840 Descending Boston Center
07:54PM 43.2286 -75.9339 77° East 157 181 3,500 -720 Descending Boston Center
07:55PM 43.2325 -75.8744 85° East 158 182 2,800 -600 Descending Boston Center
07:56PM 43.2342 -75.8175 88° East 154 177 2,300 -480 Descending Boston Center
07:57PM 43.2378 -75.7633 85° East 141 162 1,900 -240 Descending Boston Center
07:58PM 43.2453 -75.7183 77° East 126 145 1,900 -60 Level Boston Center
07:59PM 43.2464 -75.6811 88° East 110 127 1,800  Descending Boston Center
08:01PM 43.2500 -75.6000 71° East  Level FlightAware Approximate
08:08PM 43.2509 -75.6044 71° East  Level Estimated
08:09PM 43.2500 -75.6000 71° East  Level FlightAware Approximate
08:10PM 43.2509 -75.6044 71° East  Level Estimated
08:11PM 43.2500 -75.6000 71° East  Level FlightAware Approximate
08:12PM 43.2509 -75.6044 71° East  Level Estimated
08:12PM 43.2108 -75.7564 255° West 147 169 2,500  Level Boston Center
08:13PM 43.2500 -75.6000 71° East  Level FlightAware Approximate
08:13PM 43.1947 -75.8094 247° West 152 175 2,400  Level Boston Center
08:14PM 43.2509 -75.6044 71° East  Level Estimated
08:14PM 43.1786 -75.8628 248° West 151 174 2,400  Level Boston Center
08:15PM 43.2500 -75.6000 71° East  Level FlightAware Approximate
08:16PM 43.2509 -75.6044 71° East  Level Estimated